createdAt,value
2023-04-02T00:01:04.413Z,101165.19
2023-04-02T00:03:46.218Z,101163.56
2023-04-02T00:06:41.723Z,101167.16
2023-04-02T00:09:16.893Z,101165.38
2023-04-02T00:11:50.118Z,101166.97
2023-04-02T00:14:39.710Z,101176.09
2023-04-02T00:17:09.327Z,101171.38
2023-04-02T00:19:53.273Z,101171.56
2023-04-02T00:22:24.233Z,101167.81
2023-04-02T00:24:56.277Z,101179.75
2023-04-02T00:27:26.064Z,101175.63
2023-04-02T00:29:58.174Z,101161.03
2023-04-02T00:32:38.214Z,101177.34
2023-04-02T00:35:28.711Z,101172.97
2023-04-02T00:37:59.603Z,101176.03
2023-04-02T00:40:32.506Z,101162.38
2023-04-02T00:43:05.874Z,101172.25
2023-04-02T00:45:40.344Z,101160.56
2023-04-02T00:49:02.357Z,101165.44
2023-04-02T00:51:59.411Z,101154.06
2023-04-02T00:54:33.151Z,101155.34
2023-04-02T00:57:04.410Z,101167.84
2023-04-02T00:59:35.906Z,101154.84
2023-04-02T01:02:20.198Z,101164.72
2023-04-02T01:05:19.186Z,101152.06
2023-04-02T01:08:06.718Z,101151.28
2023-04-02T01:11:01.025Z,101145.78
2023-04-02T01:13:48.202Z,101138.06
2023-04-02T01:16:37.980Z,101150.16
2023-04-02T01:19:39.348Z,101144.63
2023-04-02T01:22:36.547Z,101131.50
2023-04-02T01:25:08.052Z,101136.25
2023-04-02T01:27:58.938Z,101126.25
2023-04-02T01:30:28.841Z,101135.56
2023-04-02T01:32:59.245Z,101129.72
2023-04-02T01:35:34.147Z,101125.28
2023-04-02T01:38:28.810Z,101138.06
2023-04-02T01:41:11.069Z,101132.94
2023-04-02T01:43:55.043Z,101120.00
2023-04-02T01:46:33.309Z,101131.84
2023-04-02T01:49:05.276Z,101111.00
2023-04-02T01:51:37.518Z,101113.28
2023-04-02T01:54:07.827Z,101120.66
2023-04-02T01:56:38.254Z,101116.59
2023-04-02T01:59:08.783Z,101100.28
2023-04-02T02:01:47.229Z,101120.03
2023-04-02T02:04:18.263Z,101104.22
2023-04-02T02:06:49.291Z,101110.84
2023-04-02T02:09:31.602Z,101108.47
2023-04-02T02:12:04.310Z,101110.84
2023-04-02T02:14:34.419Z,101105.19
2023-04-02T02:17:06.254Z,101102.38
2023-04-02T02:19:55.856Z,101103.88
2023-04-02T02:22:40.400Z,101110.16
2023-04-02T02:25:17.466Z,101099.19
2023-04-02T02:27:55.314Z,101103.41
2023-04-02T02:30:37.723Z,101094.63
2023-04-02T02:33:15.860Z,101086.19
2023-04-02T02:36:02.051Z,101083.78
2023-04-02T02:38:42.771Z,101084.25
2023-04-02T02:41:27.821Z,101074.63
2023-04-02T02:44:25.938Z,101072.31
2023-04-02T02:46:58.119Z,101064.28
2023-04-02T02:49:34.989Z,101067.16
2023-04-02T02:52:12.938Z,101066.53
2023-04-02T02:54:52.716Z,101065.06
2023-04-02T02:57:27.824Z,101044.56
2023-04-02T03:00:02.294Z,101055.53
2023-04-02T03:02:32.089Z,101036.91
2023-04-02T03:05:04.337Z,101022.56
2023-04-02T03:07:34.734Z,101030.63
2023-04-02T03:10:25.936Z,101026.59
2023-04-02T03:13:29.246Z,101031.97
2023-04-02T03:16:01.791Z,101033.38
2023-04-02T03:18:44.018Z,101027.53
2023-04-02T03:21:19.426Z,101019.63
2023-04-02T03:24:02.874Z,101024.84
2023-04-02T03:27:07.567Z,101018.03
2023-04-02T03:29:42.400Z,101010.41
2023-04-02T03:32:18.329Z,101017.66
2023-04-02T03:34:58.384Z,101008.16
2023-04-02T03:37:34.630Z,101015.16
2023-04-02T03:40:33.012Z,101005.38
2023-04-02T03:43:29.516Z,100983.97
2023-04-02T03:46:26.339Z,100998.41
2023-04-02T03:49:01.164Z,100997.34
2023-04-02T03:51:40.198Z,101003.19
2023-04-02T03:54:17.206Z,100990.13
2023-04-02T03:56:49.043Z,100987.13
2023-04-02T03:59:41.465Z,100979.75
2023-04-02T04:02:29.329Z,100969.97
2023-04-02T04:04:59.934Z,100965.03
2023-04-02T04:07:42.836Z,100959.75
2023-04-02T04:10:21.876Z,100963.69
2023-04-02T04:12:54.891Z,100947.94
2023-04-02T04:15:40.709Z,100939.94
2023-04-02T04:18:36.404Z,100946.56
2023-04-02T04:21:14.296Z,100941.69
2023-04-02T04:23:52.091Z,100938.78
2023-04-02T04:27:05.346Z,100936.22
2023-04-02T04:29:53.091Z,100944.53
2023-04-02T04:32:51.733Z,100931.06
2023-04-02T04:35:35.330Z,100929.72
2023-04-02T04:38:23.159Z,100925.00
2023-04-02T04:41:01.733Z,100920.00
2023-04-02T04:43:54.343Z,100921.06
2023-04-02T04:47:00.455Z,100919.28
2023-04-02T04:49:49.923Z,100889.72
2023-04-02T04:52:28.218Z,100906.84
2023-04-02T04:54:59.987Z,100887.03
2023-04-02T04:57:42.861Z,100887.41
2023-04-02T05:00:32.961Z,100891.22
2023-04-02T05:03:10.666Z,100884.38
2023-04-02T05:05:43.077Z,100880.84
2023-04-02T05:08:34.511Z,100868.88
2023-04-02T05:11:10.047Z,100873.94
2023-04-02T05:14:02.661Z,100882.22
2023-04-02T05:16:53.736Z,100881.41
2023-04-02T05:19:47.587Z,100872.81
2023-04-02T05:22:38.385Z,100868.41
2023-04-02T05:25:28.880Z,100867.94
2023-04-02T05:28:19.395Z,100863.38
2023-04-02T05:30:58.190Z,100862.75
2023-04-02T05:33:34.707Z,100860.81
2023-04-02T05:36:09.946Z,100866.09
2023-04-02T05:38:42.190Z,100863.81
2023-04-02T05:41:38.175Z,100860.66
2023-04-02T05:44:20.376Z,100865.09
2023-04-02T05:47:02.863Z,100861.78
2023-04-02T05:49:32.630Z,100855.13
2023-04-02T05:52:05.767Z,100862.09
2023-04-02T05:54:36.539Z,100857.00
2023-04-02T05:57:17.654Z,100847.19
2023-04-02T05:59:53.543Z,100843.72
2023-04-02T06:02:41.532Z,100830.84
2023-04-02T06:05:34.561Z,100819.78
2023-04-02T06:08:26.331Z,100826.72
2023-04-02T06:11:18.372Z,100807.44
2023-04-02T06:13:48.039Z,100816.25
2023-04-02T06:16:19.261Z,100830.84
2023-04-02T06:18:48.958Z,100825.56
2023-04-02T06:21:22.563Z,100829.69
2023-04-02T06:24:03.671Z,100817.63
2023-04-02T06:26:40.907Z,100820.78
2023-04-02T06:29:22.159Z,100804.16
2023-04-02T06:32:03.617Z,100806.94
2023-04-02T06:34:35.361Z,100809.38
2023-04-02T06:37:16.076Z,100808.56
2023-04-02T06:39:45.687Z,100807.94
2023-04-02T06:42:30.675Z,100792.38
2023-04-02T06:45:00.739Z,100787.38
2023-04-02T06:47:40.050Z,100777.53
2023-04-02T06:50:35.481Z,100775.47
2023-04-02T06:53:13.222Z,100733.53
2023-04-02T06:56:00.579Z,100776.47
2023-04-02T06:58:30.172Z,100762.63
2023-04-02T07:01:00.146Z,100766.00
2023-04-02T07:03:36.527Z,100763.63
2023-04-02T07:06:06.226Z,100759.75
2023-04-02T07:08:35.881Z,100763.56
2023-04-02T07:11:05.467Z,100761.50
2023-04-02T07:13:35.047Z,100768.91
2023-04-02T07:16:04.739Z,100769.97
2023-04-02T07:18:36.261Z,100776.00
2023-04-02T07:21:05.880Z,100764.00
2023-04-02T07:23:35.574Z,100781.41
2023-04-02T07:26:05.635Z,100775.75
2023-04-02T07:28:35.727Z,100771.06
2023-04-02T07:31:05.509Z,100776.19
2023-04-02T07:33:35.084Z,100774.22
2023-04-02T07:36:04.703Z,100772.22
2023-04-02T07:38:34.318Z,100780.06
2023-04-02T07:41:08.563Z,100785.47
2023-04-02T07:43:38.336Z,100761.38
2023-04-02T07:46:09.176Z,100775.34
2023-04-02T07:48:39.216Z,100768.59
2023-04-02T07:51:27.452Z,100784.66
2023-04-02T07:53:57.409Z,100782.50
2023-04-02T07:56:28.187Z,100786.75
2023-04-02T07:58:57.906Z,100769.75
2023-04-02T08:01:29.656Z,100782.59
2023-04-02T08:04:00.096Z,100777.09
2023-04-02T08:06:29.819Z,100777.81
2023-04-02T08:09:00.825Z,100790.09
2023-04-02T08:11:31.784Z,100791.97
2023-04-02T08:14:01.644Z,100796.84
2023-04-02T08:16:44.918Z,100792.78
2023-04-02T08:19:14.575Z,100797.75
2023-04-02T08:21:44.645Z,100796.75
2023-04-02T08:24:14.570Z,100794.53
2023-04-02T08:26:45.461Z,100797.59
2023-04-02T08:29:15.353Z,100800.84
2023-04-02T08:31:44.965Z,100807.00
2023-04-02T08:34:14.819Z,100807.69
2023-04-02T08:36:46.955Z,100812.50
2023-04-02T08:39:16.659Z,100809.28
2023-04-02T08:42:23.090Z,100815.31
2023-04-02T08:45:25.043Z,100824.78
2023-04-02T08:47:58.798Z,100823.72
2023-04-02T08:50:40.879Z,100821.63
2023-04-02T08:53:23.458Z,100829.78
2023-04-02T08:56:01.494Z,100817.19
2023-04-02T08:58:46.473Z,100813.81
2023-04-02T09:01:37.315Z,100825.69
2023-04-02T09:04:16.175Z,100826.69
2023-04-02T09:06:46.095Z,100825.88
2023-04-02T09:09:18.177Z,100835.81
2023-04-02T09:11:50.719Z,100843.84
2023-04-02T09:14:34.432Z,100849.19
2023-04-02T09:17:16.713Z,100838.25
2023-04-02T09:19:55.334Z,100835.91
2023-04-02T09:22:26.821Z,100846.53
2023-04-02T09:24:59.051Z,100843.91
2023-04-02T09:27:34.909Z,100846.69
2023-04-02T09:30:33.769Z,100852.50
2023-04-02T09:33:09.086Z,100857.81
2023-04-02T09:35:56.505Z,100845.84
2023-04-02T09:38:33.102Z,100857.69
2023-04-02T09:41:20.560Z,100857.09
2023-04-02T09:43:50.129Z,100869.34
2023-04-02T09:46:26.452Z,100867.22
2023-04-02T09:49:02.558Z,100872.84
2023-04-02T09:51:37.995Z,100866.34
2023-04-02T09:54:15.045Z,100880.47
2023-04-02T09:57:03.006Z,100883.59
2023-04-02T09:59:32.786Z,100883.47
2023-04-02T10:02:05.270Z,100888.56
2023-04-02T10:04:50.062Z,100895.66
2023-04-02T10:07:54.666Z,100900.56
2023-04-02T10:10:25.260Z,100902.22
2023-04-02T10:13:26.310Z,100902.41
2023-04-02T10:16:23.343Z,100909.59
2023-04-02T10:19:04.787Z,100922.56
2023-04-02T10:21:40.572Z,100921.44
2023-04-02T10:24:18.624Z,100914.25
2023-04-02T10:27:11.057Z,100926.03
2023-04-02T10:30:04.041Z,100923.88
2023-04-02T10:32:56.641Z,100935.34
2023-04-02T10:35:51.942Z,100939.06
2023-04-02T10:38:33.394Z,100942.84
2023-04-02T10:41:24.288Z,100935.66
2023-04-02T10:44:20.782Z,100945.25
2023-04-02T10:47:23.907Z,100947.56
2023-04-02T10:50:03.433Z,100938.38
2023-04-02T10:52:41.513Z,100951.78
2023-04-02T10:55:33.621Z,100952.44
2023-04-02T10:58:13.564Z,100967.00
2023-04-02T11:00:47.367Z,100968.78
2023-04-02T11:03:43.202Z,100972.81
2023-04-02T11:06:41.546Z,100967.25
2023-04-02T11:09:19.591Z,100971.69
2023-04-02T11:11:54.499Z,100976.16
2023-04-02T11:14:31.058Z,100984.81
2023-04-02T11:17:06.389Z,100982.31
2023-04-02T11:19:38.542Z,100986.69
2023-04-02T11:22:25.318Z,100990.28
2023-04-02T11:24:59.362Z,100989.13
2023-04-02T11:27:32.487Z,100993.53
2023-04-02T11:30:17.315Z,101011.44
2023-04-02T11:32:51.874Z,101012.16
2023-04-02T11:35:33.811Z,101009.19
2023-04-02T11:38:23.520Z,101025.75
2023-04-02T11:40:56.953Z,101031.53
2023-04-02T11:43:38.775Z,101016.91
2023-04-02T11:46:18.335Z,101016.84
2023-04-02T11:48:48.279Z,101026.88
2023-04-02T11:51:27.025Z,101030.53
2023-04-02T11:53:59.872Z,101032.00
2023-04-02T11:56:32.340Z,101037.56
2023-04-02T11:59:24.832Z,101044.78
2023-04-02T12:02:12.136Z,101055.88
2023-04-02T12:05:00.667Z,101058.78
2023-04-02T12:07:57.317Z,101062.16
2023-04-02T12:11:00.261Z,101070.75
2023-04-02T12:13:42.140Z,101066.59
2023-04-02T12:16:15.486Z,101073.78
2023-04-02T12:18:50.000Z,101078.94
2023-04-02T12:21:25.914Z,101095.34
2023-04-02T12:23:59.273Z,101092.81
2023-04-02T12:26:43.789Z,101087.84
2023-04-02T12:29:23.259Z,101100.00
2023-04-02T12:31:53.312Z,101099.56
2023-04-02T12:34:25.397Z,101115.13
2023-04-02T12:37:06.420Z,101111.09
2023-04-02T12:39:37.263Z,101113.03
2023-04-02T12:42:07.331Z,101119.59
2023-04-02T12:44:37.044Z,101123.41
2023-04-02T12:47:07.233Z,101124.06
2023-04-02T12:49:42.330Z,101129.00
2023-04-02T12:52:16.308Z,101141.59
2023-04-02T12:54:55.243Z,101130.84
2023-04-02T12:57:30.628Z,101143.78
2023-04-02T13:00:07.511Z,101142.25
2023-04-02T13:02:48.172Z,101130.75
2023-04-02T13:05:44.609Z,101145.66
2023-04-02T13:08:43.061Z,101147.91
2023-04-02T13:11:12.758Z,101151.72
2023-04-02T13:13:45.109Z,101163.09
2023-04-02T13:16:20.643Z,101167.22
2023-04-02T13:18:51.421Z,101170.69
2023-04-02T13:21:23.766Z,101170.69
2023-04-02T13:23:53.330Z,101173.16
2023-04-02T13:26:28.769Z,101144.84
2023-04-02T13:29:05.437Z,101178.31
2023-04-02T13:31:35.725Z,101187.97
2023-04-02T13:34:05.383Z,101178.41
2023-04-02T13:36:35.215Z,101184.97
2023-04-02T13:39:05.157Z,101177.63
2023-04-02T13:41:41.950Z,101184.81
2023-04-02T13:44:22.477Z,101178.25
2023-04-02T13:46:53.330Z,101189.84
2023-04-02T13:49:23.658Z,101195.91
2023-04-02T13:52:01.450Z,101189.31
2023-04-02T13:54:39.482Z,101190.56
2023-04-02T13:57:09.160Z,101193.41
2023-04-02T13:59:38.743Z,101183.97
2023-04-02T14:02:19.297Z,101185.22
2023-04-02T14:04:52.279Z,101194.75
2023-04-02T14:07:40.174Z,101194.13
2023-04-02T14:10:39.401Z,101185.72
2023-04-02T14:13:12.087Z,101193.81
2023-04-02T14:16:07.421Z,101190.84
2023-04-02T14:18:58.381Z,101190.09
2023-04-02T14:21:51.933Z,101205.69
2023-04-02T14:24:56.569Z,101211.00
2023-04-02T14:27:51.443Z,101201.56
2023-04-02T14:30:21.049Z,101201.25
2023-04-02T14:33:00.535Z,101194.69
2023-04-02T14:35:40.298Z,101202.25
2023-04-02T14:38:24.744Z,101196.81
2023-04-02T14:40:57.601Z,101198.84
2023-04-02T14:43:59.494Z,101198.78
2023-04-02T14:46:32.995Z,101200.44
2023-04-02T14:49:29.103Z,101197.16
2023-04-02T14:52:12.862Z,101205.91
2023-04-02T14:54:55.718Z,101202.47
2023-04-02T14:57:50.451Z,101199.97
2023-04-02T15:00:39.140Z,101204.69
2023-04-02T15:03:38.068Z,101210.38
2023-04-02T15:06:12.269Z,101209.34
2023-04-02T15:09:02.188Z,101207.41
2023-04-02T15:11:43.207Z,101199.22
2023-04-02T15:14:55.070Z,101206.47
2023-04-02T15:17:26.435Z,101217.34
2023-04-02T15:20:09.416Z,101220.81
2023-04-02T15:22:43.657Z,101226.03
2023-04-02T15:25:18.961Z,101210.91
2023-04-02T15:28:12.166Z,101218.34
2023-04-02T15:30:47.209Z,101208.47
2023-04-02T15:33:50.405Z,101223.59
2023-04-02T15:36:47.334Z,101219.41
2023-04-02T15:39:59.710Z,101219.38
2023-04-02T15:42:38.753Z,101220.34
2023-04-02T15:45:14.462Z,101231.28
2023-04-02T15:47:50.226Z,101231.00
2023-04-02T15:50:52.021Z,101237.09
2023-04-02T15:53:33.825Z,101236.81
2023-04-02T15:56:17.596Z,101231.59
2023-04-02T15:59:04.294Z,101228.00
2023-04-02T16:01:34.040Z,101228.47
2023-04-02T16:04:19.703Z,101226.00
2023-04-02T16:07:24.168Z,101222.81
2023-04-02T16:10:02.796Z,101232.03
2023-04-02T16:12:35.497Z,101235.72
2023-04-02T16:15:26.525Z,101233.25
2023-04-02T16:18:05.764Z,101244.09
2023-04-02T16:20:43.161Z,101232.97
2023-04-02T16:23:22.595Z,101255.91
2023-04-02T16:26:12.111Z,101249.44
2023-04-02T16:28:53.657Z,101213.09
2023-04-02T16:31:35.078Z,101261.09
2023-04-02T16:34:10.495Z,101268.91
2023-04-02T16:36:53.686Z,101265.47
2023-04-02T16:39:43.720Z,101252.91
2023-04-02T16:42:33.315Z,101264.72
2023-04-02T16:45:25.857Z,101261.16
2023-04-02T16:48:10.624Z,101257.31
2023-04-02T16:50:58.392Z,101268.59
2023-04-02T16:54:10.355Z,101271.59
2023-04-02T16:56:58.070Z,101270.72
2023-04-02T16:59:42.911Z,101268.22
2023-04-02T17:02:22.997Z,101259.50
2023-04-02T17:04:52.786Z,101268.75
2023-04-02T17:07:39.515Z,101268.94
2023-04-02T17:10:33.474Z,101268.69
2023-04-02T17:13:26.781Z,101255.03
2023-04-02T17:16:20.021Z,101258.00
2023-04-02T17:18:53.019Z,101250.75
2023-04-02T17:21:30.427Z,101254.47
2023-04-02T17:24:15.758Z,101247.44
2023-04-02T17:26:50.181Z,101252.34
2023-04-02T17:29:31.474Z,101247.91
2023-04-02T17:32:03.037Z,101243.59
2023-04-02T17:34:33.315Z,101252.66
2023-04-02T17:37:02.874Z,101244.03
2023-04-02T17:40:00.369Z,101247.13
2023-04-02T17:42:35.920Z,101241.44
2023-04-02T17:45:22.704Z,101242.03
2023-04-02T17:48:14.220Z,101244.69
2023-04-02T17:51:10.986Z,101245.50
2023-04-02T17:54:21.681Z,101241.81
2023-04-02T17:57:30.404Z,101241.81
2023-04-02T18:00:38.660Z,101242.38
2023-04-02T18:03:53.120Z,101242.66
2023-04-02T18:06:50.394Z,101246.53
2023-04-02T18:09:52.468Z,101240.25
2023-04-02T18:12:42.877Z,101252.69
2023-04-02T18:15:48.354Z,101249.38
2023-04-02T18:18:21.001Z,101250.56
2023-04-02T18:21:23.778Z,101249.75
2023-04-02T18:24:14.237Z,101256.06
2023-04-02T18:26:52.574Z,101252.88
2023-04-02T18:29:40.463Z,101260.50
2023-04-02T18:32:27.699Z,101263.88
2023-04-02T18:35:06.319Z,101278.19
2023-04-02T18:38:00.561Z,101270.97
2023-04-02T18:40:52.445Z,101277.63
2023-04-02T18:43:55.808Z,101283.66
2023-04-02T18:46:41.383Z,101277.66
2023-04-02T18:49:30.957Z,101290.63
2023-04-02T18:52:11.476Z,101291.19
2023-04-02T18:54:43.891Z,101298.06
2023-04-02T18:57:18.173Z,101298.06
2023-04-02T18:59:59.319Z,101306.59
2023-04-02T19:02:32.014Z,101302.75
2023-04-02T19:05:40.538Z,101307.13
2023-04-02T19:08:48.301Z,101302.44
2023-04-02T19:11:32.874Z,101313.47
2023-04-02T19:14:18.482Z,101311.56
2023-04-02T19:16:50.865Z,101318.72
2023-04-02T19:19:24.616Z,101308.53
2023-04-02T19:21:54.906Z,101313.19
2023-04-02T19:24:34.334Z,101315.97
2023-04-02T19:27:17.927Z,101315.16
2023-04-02T19:30:13.185Z,101319.56
2023-04-02T19:32:57.951Z,101317.63
2023-04-02T19:35:40.441Z,101319.00
2023-04-02T19:38:23.977Z,101328.06
2023-04-02T19:41:05.478Z,101323.41
2023-04-02T19:43:35.227Z,101325.84
2023-04-02T19:46:05.427Z,101325.31
2023-04-02T19:48:55.326Z,101329.94
2023-04-02T19:51:25.741Z,101326.13
2023-04-02T19:53:55.377Z,101334.38
2023-04-02T19:56:25.062Z,101344.03
2023-04-02T19:58:55.492Z,101334.13
2023-04-02T20:01:26.487Z,101338.78
2023-04-02T20:03:56.086Z,101340.66
2023-04-02T20:06:25.784Z,101347.78
2023-04-02T20:08:55.503Z,101341.25
2023-04-02T20:11:25.145Z,101347.31
2023-04-02T20:13:55.562Z,101340.44
2023-04-02T20:16:25.512Z,101351.19
2023-04-02T20:18:55.219Z,101352.28
2023-04-02T20:21:25.011Z,101347.00
2023-04-02T20:23:58.144Z,101346.19
2023-04-02T20:26:29.058Z,101345.94
2023-04-02T20:28:58.806Z,101351.44
2023-04-02T20:31:28.730Z,101346.44
2023-04-02T20:34:00.233Z,101355.81
2023-04-02T20:36:29.972Z,101367.91
2023-04-02T20:39:00.263Z,101360.09
2023-04-02T20:41:30.006Z,101344.09
2023-04-02T20:43:59.674Z,101354.38
2023-04-02T20:46:29.449Z,101362.91
2023-04-02T20:48:59.231Z,101365.88
2023-04-02T20:51:28.917Z,101353.50
2023-04-02T20:53:59.741Z,101363.91
2023-04-02T20:56:29.462Z,101367.22
2023-04-02T20:58:59.121Z,101367.22
2023-04-02T21:01:31.196Z,101363.09
2023-04-02T21:04:03.649Z,101366.94
2023-04-02T21:06:36.396Z,101371.06
2023-04-02T21:09:08.654Z,101377.63
2023-04-02T21:11:39.029Z,101365.28
2023-04-02T21:14:09.057Z,101367.22
2023-04-02T21:16:38.808Z,101368.31
2023-04-02T21:19:11.186Z,101370.53
2023-04-02T21:21:42.311Z,101369.66
2023-04-02T21:24:12.216Z,101368.72
2023-04-02T21:26:43.363Z,101374.88
2023-04-02T21:29:14.222Z,101368.59
2023-04-02T21:31:44.366Z,101370.25
2023-04-02T21:34:18.732Z,101376.94
2023-04-02T21:36:50.598Z,101375.59
2023-04-02T21:39:25.823Z,101382.78
2023-04-02T21:41:56.319Z,101376.78
2023-04-02T21:44:26.555Z,101369.34
2023-04-02T21:46:56.307Z,101393.66
2023-04-02T21:49:27.744Z,101393.38
2023-04-02T21:51:57.327Z,101390.63
2023-04-02T21:54:27.061Z,101393.34
2023-04-02T21:56:56.802Z,101390.56
2023-04-02T21:59:26.502Z,101379.97
2023-04-02T22:01:56.465Z,101346.19
2023-04-02T22:04:27.616Z,101388.53
2023-04-02T22:06:57.405Z,101391.47
2023-04-02T22:09:28.473Z,101397.28
2023-04-02T22:12:03.858Z,101402.13
2023-04-02T22:14:33.540Z,101394.19
2023-04-02T22:17:04.867Z,101381.72
2023-04-02T22:19:34.804Z,101390.91
2023-04-02T22:22:04.698Z,101401.13
2023-04-02T22:24:34.686Z,101400.13
2023-04-02T22:27:04.412Z,101408.72
2023-04-02T22:29:34.929Z,101409.53
2023-04-02T22:32:04.548Z,101409.88
2023-04-02T22:34:34.222Z,101405.31
2023-04-02T22:37:04.080Z,101404.53
2023-04-02T22:39:33.668Z,101403.97
2023-04-02T22:42:03.293Z,101409.28
2023-04-02T22:44:32.966Z,101409.28
2023-04-02T22:47:02.552Z,101416.06
2023-04-02T22:49:32.191Z,101412.06
2023-04-02T22:52:01.920Z,101408.25
2023-04-02T22:54:31.519Z,101416.25
2023-04-02T22:57:01.139Z,101410.41
2023-04-02T22:59:30.756Z,101407.69
2023-04-02T23:02:00.595Z,101419.47
2023-04-02T23:04:30.330Z,101423.56
2023-04-02T23:06:59.946Z,101419.34
2023-04-02T23:09:29.660Z,101418.78
2023-04-02T23:11:59.322Z,101422.34
2023-04-02T23:14:28.981Z,101423.97
2023-04-02T23:16:58.565Z,101435.09
2023-04-02T23:19:28.357Z,101427.84
2023-04-02T23:21:58.052Z,101433.19
2023-04-02T23:24:27.764Z,101437.25
2023-04-02T23:26:57.349Z,101439.50
2023-04-02T23:29:27.239Z,101442.28
2023-04-02T23:31:56.893Z,101448.84
2023-04-02T23:34:26.946Z,101446.53
2023-04-02T23:36:56.534Z,101449.41
2023-04-02T23:39:26.156Z,101450.47
2023-04-02T23:41:55.736Z,101443.34
2023-04-02T23:44:25.368Z,101442.38
2023-04-02T23:46:55.410Z,101453.97
2023-04-02T23:49:24.991Z,101457.53
2023-04-02T23:51:54.586Z,101456.97
2023-04-02T23:54:24.278Z,101465.34
2023-04-02T23:56:53.912Z,101459.56
2023-04-02T23:59:23.528Z,101453.63
